Time;durP1;ratioP1;P1;durP2;ratioP2;P2;SDS_P1;SDS_P2;PMS_P1;PMS_P2;Temp;Humidity;BMP_temperature;BMP_pressure;BME280_temperature;BME280_humidity;BME280_pressure;Samples;Min_cycle;Max_cycle;Signal;HPM_P1;HPM_P2
2023/03/05 00:00:15;;;;;;;42.92;17.20;;;2.90;63.50;;;;;;5053767;28;20252;-69
2023/03/05 00:02:42;;;;;;;38.08;19.92;;;2.90;63.90;;;;;;5053700;28;20221;-69
2023/03/05 00:05:10;;;;;;;33.30;19.10;;;2.90;64.00;;;;;;5054105;28;20272;-69
2023/03/05 00:07:37;;;;;;;31.85;17.55;;;2.80;64.30;;;;;;5067237;28;20193;-69
2023/03/05 00:10:06;;;;;;;39.20;20.55;;;2.80;65.10;;;;;;5073789;28;20725;-69
2023/03/05 00:12:34;;;;;;;34.80;18.25;;;2.90;65.40;;;;;;5069736;28;20202;-69
2023/03/05 00:15:01;;;;;;;46.45;19.70;;;2.90;65.20;;;;;;5056100;28;20615;-69
2023/03/05 00:17:29;;;;;;;31.52;18.50;;;3.00;65.50;;;;;;5054252;28;20218;-69
2023/03/05 00:19:58;;;;;;;32.15;20.65;;;3.00;65.40;;;;;;5053834;28;20229;-69
2023/03/05 00:22:25;;;;;;;39.35;21.75;;;3.00;65.30;;;;;;5063686;28;20213;-68
2023/03/05 00:24:53;;;;;;;41.25;20.95;;;3.00;65.60;;;;;;5073337;28;20236;-69
2023/03/05 00:27:20;;;;;;;38.20;20.38;;;3.00;65.90;;;;;;5064669;28;20193;-69
2023/03/05 00:29:48;;;;;;;31.00;18.25;;;3.10;66.10;;;;;;5073303;28;20224;-69
2023/03/05 00:32:15;;;;;;;42.35;22.23;;;3.00;66.20;;;;;;5059753;28;20205;-69
2023/03/05 00:34:45;;;;;;;45.15;21.95;;;3.10;66.40;;;;;;5053351;28;20247;-69
2023/03/05 00:37:12;;;;;;;36.25;20.55;;;3.00;66.40;;;;;;5053061;28;20285;-69
2023/03/05 00:39:46;;;;;;;49.33;22.55;;;2.90;67.40;;;;;;5052973;28;20250;-69
2023/03/05 00:42:13;;;;;;;39.30;20.88;;;2.80;68.30;;;;;;5051641;28;20243;-68
2023/03/05 00:44:40;;;;;;;38.00;20.38;;;2.80;69.70;;;;;;5053122;28;20301;-70
2023/03/05 00:47:08;;;;;;;41.28;20.63;;;2.80;69.40;;;;;;5061062;28;20217;-68
2023/03/05 00:49:35;;;;;;;38.10;18.33;;;2.90;69.80;;;;;;5073129;28;20197;-69
2023/03/05 00:52:02;;;;;;;44.03;19.92;;;2.90;69.60;;;;;;5067631;28;20231;-68
2023/03/05 00:54:29;;;;;;;41.85;21.08;;;3.00;70.10;;;;;;5072619;28;20292;-68
2023/03/05 00:56:56;;;;;;;45.10;22.13;;;2.90;70.10;;;;;;5068768;28;20188;-71
2023/03/05 00:59:23;;;;;;;36.88;20.90;;;2.90;70.50;;;;;;5072855;28;20315;-71
2023/03/05 01:01:58;;;;;;;46.65;23.83;;;2.90;71.10;;;;;;5063790;28;20975;-70
2023/03/05 01:04:27;;;;;;;51.65;20.73;;;2.90;71.00;;;;;;5065911;28;20188;-68
2023/03/05 01:06:57;;;;;;;48.17;22.17;;;2.80;71.50;;;;;;5062293;28;20218;-69
2023/03/05 01:09:24;;;;;;;42.00;21.08;;;2.80;71.50;;;;;;5052198;28;20206;-69
2023/03/05 01:11:52;;;;;;;44.95;20.08;;;2.80;72.10;;;;;;5051492;28;20197;-69
2023/03/05 01:14:19;;;;;;;44.28;24.10;;;2.80;72.70;;;;;;5052839;28;20233;-68
2023/03/05 01:16:51;;;;;;;47.00;24.98;;;2.80;72.60;;;;;;5054225;28;20189;-69
2023/03/05 01:19:18;;;;;;;48.25;23.65;;;2.80;72.70;;;;;;5072521;28;20315;-69
2023/03/05 01:21:47;;;;;;;43.88;22.50;;;2.90;72.90;;;;;;5064603;28;20206;-69
2023/03/05 01:24:14;;;;;;;43.65;22.38;;;2.90;72.80;;;;;;5052132;28;20276;-69
2023/03/05 01:26:41;;;;;;;45.63;22.58;;;2.90;72.80;;;;;;5054052;28;20210;-69
2023/03/05 01:29:09;;;;;;;49.22;21.55;;;2.80;73.20;;;;;;5072133;28;20242;-68
2023/03/05 01:31:35;;;;;;;47.22;23.30;;;2.90;73.70;;;;;;5066648;28;20186;-69
2023/03/05 01:34:02;;;;;;;52.70;23.85;;;2.80;73.70;;;;;;5052404;28;20232;-69
2023/03/05 01:36:30;;;;;;;53.30;23.95;;;2.80;74.30;;;;;;5052974;28;20190;-69
2023/03/05 01:38:59;;;;;;;61.33;23.83;;;2.70;75.20;;;;;;5051056;28;20194;-70
2023/03/05 01:41:26;;;;;;;45.30;21.85;;;2.70;75.80;;;;;;5051642;28;20226;-69
2023/03/05 01:43:53;;;;;;;47.67;22.55;;;2.70;75.80;;;;;;5072110;28;20214;-68
2023/03/05 01:46:30;;;;;;;52.60;23.42;;;2.70;75.90;;;;;;5067019;28;20224;-71
2023/03/05 01:49:04;;;;;;;44.30;23.60;;;2.80;75.60;;;;;;5050505;28;20189;-68
2023/03/05 01:51:34;;;;;;;46.20;23.90;;;2.80;76.40;;;;;;5051950;28;20197;-69
2023/03/05 01:54:06;;;;;;;47.15;22.58;;;2.80;76.20;;;;;;5071433;28;20260;-69
2023/03/05 01:56:33;;;;;;;42.47;22.40;;;2.80;76.00;;;;;;5067553;28;20182;-69
2023/03/05 01:59:03;;;;;;;49.03;22.52;;;2.90;75.80;;;;;;5071996;28;20251;-69
2023/03/05 02:01:33;;;;;;;44.38;22.38;;;2.90;76.10;;;;;;5066239;28;20281;-69
2023/03/05 02:04:01;;;;;;;50.78;23.27;;;2.90;76.30;;;;;;5071342;28;20246;-69
2023/03/05 02:06:30;;;;;;;45.00;23.15;;;2.90;75.90;;;;;;5064395;28;20213;-69
2023/03/05 02:08:59;;;;;;;42.53;22.58;;;2.90;75.90;;;;;;5060645;28;20340;-70
2023/03/05 02:11:27;;;;;;;44.88;21.65;;;2.90;76.20;;;;;;5051915;28;20269;-69
2023/03/05 02:13:54;;;;;;;49.95;24.98;;;2.90;75.90;;;;;;5066049;28;20235;-69
2023/03/05 02:16:21;;;;;;;60.08;28.33;;;2.90;76.50;;;;;;5071700;28;20592;-68
2023/03/05 02:18:48;;;;;;;64.43;26.77;;;2.90;76.60;;;;;;5052482;28;20597;-69
2023/03/05 02:21:28;;;;;;;54.05;25.45;;;2.90;76.70;;;;;;5071566;28;20231;-68
2023/03/05 02:23:54;;;;;;;46.88;21.45;;;3.00;76.60;;;;;;5051862;28;20196;-69
2023/03/05 02:26:21;;;;;;;45.80;24.33;;;3.00;76.90;;;;;;5051603;28;20222;-68
2023/03/05 02:28:53;;;;;;;61.38;24.45;;;3.00;76.50;;;;;;5060938;28;20688;-70
2023/03/05 02:31:23;;;;;;;57.30;24.35;;;3.00;76.60;;;;;;5050457;28;20183;-68
2023/03/05 02:33:50;;;;;;;40.65;21.67;;;3.00;76.30;;;;;;5050140;28;20631;-70
2023/03/05 02:36:19;;;;;;;39.92;21.33;;;2.90;76.60;;;;;;5053849;28;20186;-68
2023/03/05 02:38:49;;;;;;;39.97;22.50;;;3.00;76.70;;;;;;5054972;28;20649;-70
2023/03/05 02:41:16;;;;;;;42.15;20.13;;;3.00;77.00;;;;;;5056241;28;20336;-70
2023/03/05 02:43:45;;;;;;;46.50;22.88;;;3.00;77.30;;;;;;5035064;28;20285;-73
2023/03/05 02:46:12;;;;;;;43.90;21.73;;;2.90;77.10;;;;;;5055265;28;20195;-69
2023/03/05 02:48:39;;;;;;;40.28;22.60;;;2.90;77.50;;;;;;5055614;28;20240;-69
2023/03/05 02:51:08;;;;;;;41.38;20.38;;;2.90;77.80;;;;;;5070794;28;20628;-70
2023/03/05 02:53:36;;;;;;;37.90;20.52;;;3.00;77.00;;;;;;5075354;28;20695;-69
2023/03/05 02:56:04;;;;;;;38.67;21.02;;;2.90;77.70;;;;;;5056302;28;20273;-69
2023/03/05 02:58:31;;;;;;;56.65;23.17;;;2.90;78.30;;;;;;5055310;28;20697;-69
2023/03/05 03:00:58;;;;;;;37.78;22.42;;;3.00;78.00;;;;;;5053572;28;20263;-69
2023/03/05 03:03:25;;;;;;;39.58;22.00;;;2.90;78.40;;;;;;5055460;28;20648;-69
2023/03/05 03:05:52;;;;;;;37.53;20.73;;;2.90;78.50;;;;;;5055313;28;20250;-68
2023/03/05 03:08:18;;;;;;;37.10;19.55;;;2.90;78.70;;;;;;5054773;28;20291;-68
2023/03/05 03:10:49;;;;;;;38.40;21.83;;;3.00;78.80;;;;;;5065343;28;20276;-69
2023/03/05 03:13:15;;;;;;;41.78;20.05;;;3.00;78.80;;;;;;5074614;28;20232;-69
2023/03/05 03:15:42;;;;;;;45.40;22.70;;;3.00;78.80;;;;;;5070501;28;20275;-68
2023/03/05 03:18:10;;;;;;;44.35;22.17;;;2.90;78.90;;;;;;5057810;28;20547;-69
2023/03/05 03:20:38;;;;;;;49.95;24.10;;;3.00;79.60;;;;;;5053326;28;20680;-69
2023/03/05 03:23:05;;;;;;;41.05;20.40;;;3.00;79.60;;;;;;5054931;28;20190;-69
2023/03/05 03:25:32;;;;;;;48.08;21.85;;;3.00;79.10;;;;;;5055485;28;20190;-68
2023/03/05 03:28:01;;;;;;;46.97;22.65;;;3.00;79.00;;;;;;5054439;28;20194;-68
2023/03/05 03:30:28;;;;;;;50.72;22.80;;;3.00;79.10;;;;;;5061350;28;20199;-70
2023/03/05 03:32:55;;;;;;;44.22;21.10;;;3.00;79.60;;;;;;5074420;28;20593;-68
2023/03/05 03:35:22;;;;;;;43.20;22.80;;;3.00;79.40;;;;;;5072181;28;20216;-69
2023/03/05 03:37:49;;;;;;;46.03;22.95;;;3.00;79.50;;;;;;5074027;28;20228;-68
2023/03/05 03:40:18;;;;;;;45.15;21.42;;;3.10;79.60;;;;;;5064924;28;20332;-69
2023/03/05 03:42:45;;;;;;;50.15;24.13;;;3.10;79.60;;;;;;5054221;28;20637;-69
2023/03/05 03:45:15;;;;;;;45.70;21.42;;;3.10;79.80;;;;;;5059527;28;20221;-69
2023/03/05 03:47:43;;;;;;;42.72;22.42;;;3.10;79.80;;;;;;5059175;28;20196;-69
2023/03/05 03:50:11;;;;;;;51.92;21.70;;;3.10;79.60;;;;;;5053611;28;20197;-69
2023/03/05 03:52:38;;;;;;;48.58;20.98;;;3.10;79.60;;;;;;5052626;28;20194;-68
2023/03/05 03:55:06;;;;;;;44.80;22.85;;;3.10;79.60;;;;;;5062153;28;20221;-69
2023/03/05 03:57:33;;;;;;;40.15;19.73;;;3.10;79.70;;;;;;5064580;28;20198;-68
2023/03/05 04:00:00;;;;;;;43.22;22.33;;;3.20;79.60;;;;;;5054028;28;20210;-69
2023/03/05 04:02:29;;;;;;;44.78;21.60;;;3.20;79.70;;;;;;5054300;28;20360;-69
2023/03/05 04:04:55;;;;;;;40.38;20.60;;;3.20;79.80;;;;;;5064547;28;20189;-68
2023/03/05 04:07:22;;;;;;;40.72;20.85;;;3.20;80.20;;;;;;5058030;28;20185;-69
2023/03/05 04:09:49;;;;;;;42.53;21.23;;;3.20;80.20;;;;;;5073614;28;20287;-68
2023/03/05 04:12:17;;;;;;;42.33;20.77;;;3.20;80.20;;;;;;5069903;28;20726;-69
2023/03/05 04:14:45;;;;;;;54.33;25.05;;;3.20;80.10;;;;;;5067054;28;20233;-69
2023/03/05 04:17:13;;;;;;;42.80;21.35;;;3.20;80.20;;;;;;5073843;28;20277;-69
2023/03/05 04:19:43;;;;;;;43.97;22.90;;;3.30;80.10;;;;;;5071943;28;20352;-70
2023/03/05 04:22:12;;;;;;;42.78;21.65;;;3.30;80.20;;;;;;5070705;28;20213;-69
2023/03/05 04:24:40;;;;;;;44.08;24.35;;;3.20;80.40;;;;;;5067758;28;20241;-69
2023/03/05 04:27:07;;;;;;;46.17;21.88;;;3.20;80.80;;;;;;5066928;28;20186;-69
2023/03/05 04:29:34;;;;;;;39.20;20.73;;;3.20;80.90;;;;;;5068884;28;20217;-69
2023/03/05 04:32:02;;;;;;;42.97;22.40;;;3.20;81.00;;;;;;5052701;28;20703;-70
2023/03/05 04:34:29;;;;;;;38.47;21.08;;;3.20;81.10;;;;;;5062354;28;20575;-69
2023/03/05 04:36:57;;;;;;;46.95;22.50;;;3.20;80.90;;;;;;5073147;28;20196;-69
2023/03/05 04:39:25;;;;;;;41.95;22.08;;;3.20;80.90;;;;;;5059739;28;20277;-70
2023/03/05 04:41:52;;;;;;;49.25;25.23;;;3.20;81.00;;;;;;5069353;28;20300;-69
2023/03/05 04:44:18;;;;;;;48.20;24.60;;;3.20;81.00;;;;;;5070292;28;20315;-69
2023/03/05 04:46:45;;;;;;;48.75;22.42;;;3.20;80.80;;;;;;5072672;28;20235;-69
2023/03/05 04:49:12;;;;;;;40.92;21.98;;;3.20;80.60;;;;;;5070401;28;20174;-69
2023/03/05 04:51:39;;;;;;;38.08;21.15;;;3.20;80.90;;;;;;5058774;28;20237;-69
2023/03/05 04:54:08;;;;;;;37.42;19.83;;;3.20;80.60;;;;;;5072465;28;20235;-69
2023/03/05 04:56:35;;;;;;;38.58;20.00;;;3.20;80.70;;;;;;5064082;28;20190;-68
2023/03/05 04:59:02;;;;;;;42.85;19.85;;;3.20;81.00;;;;;;5052389;28;20282;-69
2023/03/05 05:01:29;;;;;;;37.78;20.63;;;3.20;81.20;;;;;;5052493;28;20601;-69
2023/03/05 05:03:56;;;;;;;40.80;21.48;;;3.20;81.90;;;;;;5052964;28;20190;-69
2023/03/05 05:06:23;;;;;;;38.95;19.10;;;3.10;81.80;;;;;;5064189;28;20246;-69
2023/03/05 05:08:50;;;;;;;41.55;20.00;;;3.00;82.30;;;;;;5072290;28;20577;-68
2023/03/05 05:11:18;;;;;;;48.08;24.92;;;3.00;82.40;;;;;;5057289;28;20194;-68
2023/03/05 05:13:45;;;;;;;39.25;21.30;;;3.10;82.60;;;;;;5052394;28;20216;-68
2023/03/05 05:16:12;;;;;;;49.63;22.45;;;3.10;82.20;;;;;;5052266;28;20190;-68
2023/03/05 05:18:39;;;;;;;46.03;21.42;;;3.00;82.00;;;;;;5051076;28;20253;-68
2023/03/05 05:21:09;;;;;;;49.65;22.58;;;3.00;81.60;;;;;;5052229;28;20732;-69
2023/03/05 05:23:37;;;;;;;54.92;22.92;;;3.00;81.60;;;;;;5053377;28;20276;-70
2023/03/05 05:26:06;;;;;;;45.28;20.92;;;3.10;81.70;;;;;;5069356;28;20569;-68
2023/03/05 05:28:37;;;;;;;43.90;19.95;;;3.10;81.80;;;;;;5069467;28;20197;-71
2023/03/05 05:31:07;;;;;;;44.30;21.23;;;3.10;82.50;;;;;;5071265;28;20204;-69
2023/03/05 05:33:34;;;;;;;42.80;21.50;;;3.10;81.60;;;;;;5067047;28;20735;-70
2023/03/05 05:36:02;;;;;;;40.72;23.30;;;3.00;81.70;;;;;;5069168;28;20238;-70
2023/03/05 05:38:29;;;;;;;44.83;21.50;;;3.00;81.90;;;;;;5068100;28;20291;-70
2023/03/05 05:41:03;;;;;;;40.58;22.65;;;3.00;81.90;;;;;;5051631;28;20224;-68
2023/03/05 05:43:30;;;;;;;47.30;22.50;;;3.00;81.70;;;;;;5051628;28;20272;-72
2023/03/05 05:46:00;;;;;;;44.15;23.52;;;3.10;81.70;;;;;;5052079;28;20671;-68
2023/03/05 05:48:28;;;;;;;44.88;25.38;;;3.10;82.00;;;;;;5051978;28;20278;-70
2023/03/05 05:50:55;;;;;;;45.40;22.95;;;3.10;83.30;;;;;;5072062;28;20272;-68
2023/03/05 05:53:22;;;;;;;48.22;22.80;;;3.10;82.50;;;;;;5070216;28;20273;-72
2023/03/05 05:55:49;;;;;;;39.13;21.70;;;3.10;82.40;;;;;;5061991;28;20190;-68
2023/03/05 05:58:16;;;;;;;53.25;23.27;;;3.10;81.70;;;;;;5051780;28;20190;-69
2023/03/05 06:00:43;;;;;;;49.67;24.65;;;3.10;81.60;;;;;;5070579;28;20276;-68
2023/03/05 06:03:12;;;;;;;54.85;24.73;;;3.10;81.60;;;;;;5068931;28;20304;-71
2023/03/05 06:05:40;;;;;;;45.78;22.48;;;3.10;81.50;;;;;;5050810;28;20182;-69
2023/03/05 06:08:07;;;;;;;49.13;22.77;;;3.10;81.20;;;;;;5051810;28;20194;-69
2023/03/05 06:10:34;;;;;;;45.00;22.10;;;3.10;81.30;;;;;;5053658;28;20639;-69
2023/03/05 06:13:01;;;;;;;37.13;21.40;;;3.10;81.30;;;;;;5056091;28;20225;-69
2023/03/05 06:15:28;;;;;;;39.85;21.27;;;3.10;81.50;;;;;;5055708;28;20251;-69
2023/03/05 06:17:55;;;;;;;41.92;21.10;;;3.10;81.80;;;;;;5055587;28;20285;-69
2023/03/05 06:20:23;;;;;;;38.03;19.25;;;3.10;82.10;;;;;;5054107;28;20244;-69
2023/03/05 06:22:50;;;;;;;37.75;20.65;;;3.20;82.20;;;;;;5055559;28;20190;-69
2023/03/05 06:25:17;;;;;;;54.33;22.25;;;3.10;82.10;;;;;;5068412;28;20611;-73
2023/03/05 06:27:44;;;;;;;42.90;22.80;;;3.10;82.00;;;;;;5058367;28;20657;-69
2023/03/05 06:30:12;;;;;;;44.58;22.02;;;3.10;82.10;;;;;;5055630;28;20603;-68
2023/03/05 06:32:39;;;;;;;38.50;21.40;;;3.20;82.50;;;;;;5054794;28;20365;-69
2023/03/05 06:35:07;;;;;;;42.90;23.33;;;3.10;82.60;;;;;;5055036;28;20196;-69
2023/03/05 06:37:36;;;;;;;44.85;20.15;;;3.20;82.50;;;;;;5050933;28;20218;-69
2023/03/05 06:40:04;;;;;;;41.88;20.58;;;3.20;82.30;;;;;;5058829;28;20277;-70
2023/03/05 06:42:31;;;;;;;37.92;22.35;;;3.20;82.30;;;;;;5050043;28;20272;-69
2023/03/05 06:44:58;;;;;;;41.92;23.55;;;3.20;82.50;;;;;;5052398;28;20285;-70
2023/03/05 06:47:25;;;;;;;55.58;25.17;;;3.20;82.50;;;;;;5052150;28;20281;-70
2023/03/05 06:49:51;;;;;;;46.17;22.60;;;3.20;82.70;;;;;;5054802;28;20625;-69
2023/03/05 06:52:18;;;;;;;44.45;23.00;;;3.30;82.80;;;;;;5055800;28;20605;-68
2023/03/05 06:54:47;;;;;;;45.67;21.23;;;3.30;82.70;;;;;;5053262;28;20389;-69
2023/03/05 06:57:14;;;;;;;39.60;22.50;;;3.30;82.90;;;;;;5052664;28;20285;-69
2023/03/05 06:59:40;;;;;;;50.33;23.83;;;3.40;83.10;;;;;;5053146;28;20237;-69
2023/03/05 07:02:10;;;;;;;43.00;23.15;;;3.50;82.90;;;;;;5052497;28;20765;-69
2023/03/05 07:04:37;;;;;;;45.53;24.25;;;3.50;82.30;;;;;;5053938;28;20285;-70
2023/03/05 07:07:04;;;;;;;44.80;24.67;;;3.50;81.50;;;;;;5053080;28;20731;-69
2023/03/05 07:09:31;;;;;;;48.35;24.05;;;3.40;81.60;;;;;;5056950;28;20550;-70
2023/03/05 07:11:59;;;;;;;48.28;24.00;;;3.50;81.80;;;;;;5053354;28;20281;-70
2023/03/05 07:14:26;;;;;;;40.65;23.27;;;3.40;82.10;;;;;;5053957;28;20280;-69
2023/03/05 07:16:53;;;;;;;44.10;22.60;;;3.50;82.40;;;;;;5053712;28;20281;-69
2023/03/05 07:19:20;;;;;;;44.35;22.92;;;3.50;82.00;;;;;;5054847;28;20200;-70
2023/03/05 07:21:47;;;;;;;44.70;23.48;;;3.60;81.90;;;;;;5050360;28;20222;-69
2023/03/05 07:24:14;;;;;;;49.63;22.52;;;3.60;81.40;;;;;;5049432;28;20198;-71
2023/03/05 07:26:41;;;;;;;37.55;19.20;;;3.60;81.30;;;;;;5053496;28;20277;-69
2023/03/05 07:29:10;;;;;;;44.10;22.98;;;3.60;81.30;;;;;;5051945;28;20194;-70
2023/03/05 07:31:36;;;;;;;46.85;22.13;;;3.70;81.30;;;;;;5051471;28;20195;-69
2023/03/05 07:34:05;;;;;;;40.60;21.55;;;3.80;81.20;;;;;;5054195;28;20247;-69
2023/03/05 07:36:33;;;;;;;51.92;23.92;;;3.80;81.70;;;;;;5053910;28;20190;-69
2023/03/05 07:39:00;;;;;;;38.03;22.98;;;3.90;80.90;;;;;;5051074;28;20277;-71
2023/03/05 07:41:28;;;;;;;47.85;23.27;;;4.00;80.70;;;;;;5051658;28;20576;-70
2023/03/05 07:43:55;;;;;;;46.35;25.27;;;4.10;80.70;;;;;;5050907;28;20238;-70
2023/03/05 07:46:27;;;;;;;50.17;25.40;;;4.20;79.80;;;;;;5052037;28;20633;-69
2023/03/05 07:48:55;;;;;;;54.17;25.40;;;4.30;79.40;;;;;;5052311;28;20214;-68
2023/03/05 07:51:24;;;;;;;50.78;23.73;;;4.30;78.90;;;;;;5051293;28;20676;-69
2023/03/05 07:53:52;;;;;;;49.80;26.08;;;4.40;78.30;;;;;;5051843;28;20280;-70
2023/03/05 07:56:30;;;;;;;46.95;25.48;;;4.30;77.60;;;;;;5049401;28;20221;-69
2023/03/05 07:58:57;;;;;;;45.58;25.20;;;4.30;77.70;;;;;;5051612;28;20257;-70
2023/03/05 08:01:26;;;;;;;41.85;25.23;;;4.20;78.10;;;;;;5054783;28;20241;-69
2023/03/05 08:03:53;;;;;;;40.47;22.55;;;4.20;79.20;;;;;;5047883;28;20288;-69
2023/03/05 08:06:20;;;;;;;36.53;22.95;;;4.20;79.40;;;;;;5053730;28;20229;-69
2023/03/05 08:08:47;;;;;;;46.63;23.27;;;4.30;79.70;;;;;;5051231;28;20287;-69
2023/03/05 08:11:18;;;;;;;51.35;25.50;;;4.40;79.00;;;;;;5051745;28;20289;-70
2023/03/05 08:13:45;;;;;;;41.13;23.52;;;4.50;78.90;;;;;;5048472;28;20233;-68
2023/03/05 08:16:15;;;;;;;44.00;22.27;;;4.60;78.60;;;;;;5052568;28;20732;-70
2023/03/05 08:18:43;;;;;;;47.30;23.38;;;4.70;77.40;;;;;;5051726;28;20222;-69
2023/03/05 08:21:17;;;;;;;39.28;23.13;;;4.70;76.30;;;;;;5049878;28;20269;-69
2023/03/05 08:23:46;;;;;;;40.67;21.40;;;4.80;76.30;;;;;;5050236;28;20190;-69
2023/03/05 08:26:15;;;;;;;46.45;26.33;;;4.90;75.40;;;;;;5050909;28;20182;-70
2023/03/05 08:28:42;;;;;;;37.13;21.35;;;4.90;74.80;;;;;;5050519;28;20236;-69
2023/03/05 08:31:10;;;;;;;38.30;20.65;;;4.90;73.70;;;;;;5051304;28;20241;-69
2023/03/05 08:33:37;;;;;;;37.50;20.08;;;5.00;74.20;;;;;;5052955;28;20191;-69
2023/03/05 08:36:07;;;;;;;52.30;24.23;;;5.10;73.70;;;;;;5050152;28;20483;-70
2023/03/05 08:38:34;;;;;;;58.72;29.38;;;5.00;73.20;;;;;;5054328;28;20201;-68
2023/03/05 08:41:01;;;;;;;50.20;26.55;;;5.00;73.90;;;;;;5051794;28;20187;-70
2023/03/05 08:43:29;;;;;;;41.42;22.73;;;5.10;73.20;;;;;;5054892;28;20182;-70
2023/03/05 08:45:56;;;;;;;40.95;24.15;;;5.10;73.70;;;;;;5052918;28;20240;-69
2023/03/05 08:48:23;;;;;;;39.38;20.52;;;5.20;73.90;;;;;;5050130;28;20306;-70
2023/03/05 08:50:53;;;;;;;35.53;21.60;;;5.30;73.50;;;;;;5048610;28;20275;-70
2023/03/05 08:53:21;;;;;;;36.53;19.70;;;5.20;71.60;;;;;;5048491;28;20704;-71
2023/03/05 08:55:54;;;;;;;34.33;19.10;;;5.20;71.60;;;;;;5046357;28;20226;-69
2023/03/05 08:58:21;;;;;;;41.08;20.50;;;5.30;71.60;;;;;;5049899;28;20641;-69
2023/03/05 09:00:48;;;;;;;43.88;21.75;;;5.40;71.30;;;;;;5050078;28;20276;-70
2023/03/05 09:03:15;;;;;;;38.00;20.77;;;5.50;70.50;;;;;;5046970;28;20237;-69
2023/03/05 09:05:42;;;;;;;35.78;18.27;;;5.50;70.80;;;;;;5053446;28;20237;-69
2023/03/05 09:08:09;;;;;;;37.63;19.20;;;5.60;70.90;;;;;;5049459;28;20569;-70
2023/03/05 09:10:37;;;;;;;33.78;18.00;;;5.60;70.40;;;;;;5045007;28;20295;-69
2023/03/05 09:13:04;;;;;;;31.80;18.50;;;5.80;70.70;;;;;;5050607;28;20626;-69
2023/03/05 09:15:31;;;;;;;28.83;15.90;;;5.90;69.90;;;;;;5052932;28;20229;-70
2023/03/05 09:17:58;;;;;;;32.95;16.77;;;6.10;69.40;;;;;;5049452;28;20222;-69
2023/03/05 09:20:25;;;;;;;29.15;16.42;;;6.20;68.10;;;;;;5048922;28;20226;-69
2023/03/05 09:22:52;;;;;;;31.20;16.17;;;6.30;66.90;;;;;;5050098;28;20724;-69
2023/03/05 09:25:19;;;;;;;40.13;17.77;;;6.50;66.50;;;;;;5050286;28;20225;-69
2023/03/05 09:27:47;;;;;;;30.85;16.23;;;6.60;64.70;;;;;;5050070;28;20256;-69
2023/03/05 09:30:15;;;;;;;27.13;15.60;;;6.60;63.40;;;;;;5049597;28;20277;-69
2023/03/05 09:32:43;;;;;;;29.63;15.25;;;6.60;62.80;;;;;;5049407;28;20235;-70
2023/03/05 09:35:11;;;;;;;28.60;16.33;;;6.70;62.40;;;;;;5050296;28;20186;-69
2023/03/05 09:37:37;;;;;;;27.63;16.70;;;6.70;61.20;;;;;;5050638;28;20225;-69
2023/03/05 09:40:05;;;;;;;24.25;14.73;;;6.70;62.30;;;;;;5045657;28;20623;-70
2023/03/05 09:42:58;;;;;;;23.60;13.18;;;6.90;62.00;;;;;;5049766;28;20257;-69
2023/03/05 09:45:28;;;;;;;33.35;15.18;;;7.00;61.50;;;;;;5046769;28;20245;-69
2023/03/05 09:48:06;;;;;;;26.50;15.38;;;7.20;61.40;;;;;;5050839;28;20217;-69
2023/03/05 09:50:39;;;;;;;31.13;16.17;;;7.40;60.50;;;;;;5046185;28;20280;-69
2023/03/05 09:53:17;;;;;;;26.48;15.98;;;7.60;59.90;;;;;;5052300;28;20285;-70
2023/03/05 09:55:47;;;;;;;32.53;15.82;;;7.70;59.40;;;;;;5046067;28;20241;-69
2023/03/05 09:58:19;;;;;;;27.20;15.57;;;7.80;59.00;;;;;;5048900;28;20210;-69
2023/03/05 10:00:48;;;;;;;31.30;16.83;;;8.00;59.50;;;;;;5048196;28;20289;-70
2023/03/05 10:03:22;;;;;;;29.88;15.82;;;8.20;58.30;;;;;;5047590;28;20259;-69
2023/03/05 10:06:04;;;;;;;27.38;15.32;;;8.30;58.50;;;;;;5048123;28;20232;-72
2023/03/05 10:08:43;;;;;;;28.05;14.70;;;8.50;58.60;;;;;;5047558;28;20193;-69
2023/03/05 10:11:24;;;;;;;24.63;14.80;;;8.70;58.10;;;;;;5048685;28;20202;-69
2023/03/05 10:13:52;;;;;;;24.15;13.65;;;8.80;57.40;;;;;;5046309;28;20198;-69
2023/03/05 10:16:47;;;;;;;19.45;11.52;;;8.90;56.30;;;;;;5048288;28;20733;-70
2023/03/05 10:19:24;;;;;;;24.27;12.05;;;8.90;55.10;;;;;;5049268;28;20237;-70
2023/03/05 10:21:57;;;;;;;25.92;14.48;;;9.00;53.60;;;;;;5050067;28;20217;-69
2023/03/05 10:24:36;;;;;;;23.73;12.73;;;9.10;54.00;;;;;;5049157;28;20286;-69
2023/03/05 10:27:07;;;;;;;17.42;12.25;;;9.10;54.10;;;;;;5048094;28;20190;-69
2023/03/05 10:29:55;;;;;;;19.33;13.20;;;9.20;54.40;;;;;;5049012;28;20298;-70
2023/03/05 10:32:36;;;;;;;23.73;13.70;;;9.30;54.20;;;;;;5047060;28;20269;-69
2023/03/05 10:35:34;;;;;;;21.52;11.65;;;9.30;53.30;;;;;;5049552;28;20198;-68
2023/03/05 10:38:23;;;;;;;15.55;9.07;;;9.30;52.80;;;;;;5047273;28;20191;-69
2023/03/05 10:40:52;;;;;;;17.25;9.30;;;9.30;52.30;;;;;;5046788;28;20717;-71
2023/03/05 10:43:27;;;;;;;16.33;10.60;;;9.20;52.00;;;;;;5045884;28;20260;-69
2023/03/05 10:45:58;;;;;;;14.48;9.27;;;9.20;52.00;;;;;;5048896;28;20557;-68
2023/03/05 10:48:35;;;;;;;14.38;10.35;;;9.20;52.00;;;;;;5048286;28;20279;-67
2023/03/05 10:51:10;;;;;;;16.52;10.35;;;9.30;51.50;;;;;;5048825;28;20286;-70
2023/03/05 10:53:45;;;;;;;17.95;11.60;;;9.30;51.30;;;;;;5048090;28;20285;-70
2023/03/05 10:56:12;;;;;;;16.08;9.75;;;9.20;51.00;;;;;;5052807;28;20277;-69
2023/03/05 10:58:39;;;;;;;15.13;8.82;;;9.10;51.00;;;;;;5053159;28;20221;-69
2023/03/05 11:01:21;;;;;;;17.38;9.95;;;9.00;50.60;;;;;;5048888;28;20186;-70
2023/03/05 11:03:54;;;;;;;19.98;10.93;;;8.90;50.90;;;;;;5052323;28;20565;-69
2023/03/05 11:06:34;;;;;;;16.73;9.73;;;8.90;51.20;;;;;;5053247;28;20634;-69
2023/03/05 11:09:18;;;;;;;15.98;9.63;;;8.80;51.30;;;;;;5046839;28;20285;-73
2023/03/05 11:11:45;;;;;;;11.77;8.18;;;8.60;51.50;;;;;;5053192;28;20615;-69
2023/03/05 11:14:29;;;;;;;13.82;9.60;;;8.50;51.70;;;;;;5051034;28;20190;-69
2023/03/05 11:16:58;;;;;;;14.48;8.98;;;8.30;51.60;;;;;;5057517;28;20197;-70
2023/03/05 11:19:28;;;;;;;17.23;9.20;;;8.20;51.70;;;;;;5057819;28;20228;-69
2023/03/05 11:22:15;;;;;;;15.35;7.93;;;8.20;52.20;;;;;;5052708;28;20229;-69
2023/03/05 11:24:45;;;;;;;14.38;9.13;;;8.20;52.10;;;;;;5058008;28;20198;-71
2023/03/05 11:27:30;;;;;;;14.23;9.98;;;8.10;52.60;;;;;;5046934;28;20540;-70
2023/03/05 11:29:57;;;;;;;16.90;8.30;;;8.10;53.00;;;;;;5054191;28;20225;-70
2023/03/05 11:32:27;;;;;;;14.02;8.05;;;8.10;53.10;;;;;;5056653;28;20186;-70
2023/03/05 11:34:56;;;;;;;10.63;7.35;;;8.00;52.40;;;;;;5056278;28;20285;-69
2023/03/05 11:37:26;;;;;;;12.23;7.55;;;8.10;52.40;;;;;;5055203;28;20203;-69
2023/03/05 11:40:19;;;;;;;17.65;8.80;;;8.10;51.70;;;;;;5060182;28;20293;-69
2023/03/05 11:42:53;;;;;;;14.50;8.00;;;8.20;52.10;;;;;;5052979;28;20244;-69
2023/03/05 11:45:21;;;;;;;13.27;8.15;;;8.40;51.90;;;;;;5050417;28;20309;-69
2023/03/05 11:47:50;;;;;;;17.23;9.18;;;8.60;51.10;;;;;;5054672;28;20206;-69
2023/03/05 11:50:22;;;;;;;14.13;9.27;;;8.70;49.80;;;;;;5055432;28;20623;-69
2023/03/05 11:52:51;;;;;;;13.65;8.75;;;8.80;48.80;;;;;;5051619;28;20293;-70
2023/03/05 11:55:21;;;;;;;13.40;8.63;;;8.90;48.70;;;;;;5051263;28;20194;-69
2023/03/05 11:57:53;;;;;;;14.98;8.20;;;9.00;48.80;;;;;;5060707;28;20205;-69
2023/03/05 12:00:27;;;;;;;16.10;8.90;;;9.10;48.30;;;;;;5055736;28;20659;-70
2023/03/05 12:02:58;;;;;;;13.40;8.02;;;9.40;47.80;;;;;;5051458;28;20312;-69
2023/03/05 12:05:27;;;;;;;13.60;7.93;;;9.80;46.60;;;;;;5048384;28;20228;-70
2023/03/05 12:08:00;;;;;;;14.93;9.00;;;10.10;44.70;;;;;;5050804;28;20195;-71
2023/03/05 12:10:27;;;;;;;12.65;9.43;;;10.50;44.30;;;;;;5049771;28;20279;-70
2023/03/05 12:13:00;;;;;;;18.67;11.27;;;10.70;44.80;;;;;;5049733;28;20265;-69
2023/03/05 12:15:45;;;;;;;13.38;7.65;;;10.80;43.10;;;;;;5051054;28;20202;-69
2023/03/05 12:18:23;;;;;;;13.45;8.15;;;10.70;42.10;;;;;;5054562;28;20178;-70
2023/03/05 12:21:00;;;;;;;16.85;9.15;;;10.50;42.40;;;;;;5053022;28;20605;-70
2023/03/05 12:23:27;;;;;;;12.95;9.60;;;10.50;43.20;;;;;;5048079;28;20253;-69
2023/03/05 12:25:56;;;;;;;12.93;7.82;;;10.60;43.20;;;;;;5053245;28;20313;-69
2023/03/05 12:29:04;;;;;;;16.17;9.25;;;10.70;42.80;;;;;;5051213;28;20208;-69
2023/03/05 12:31:39;;;;;;;11.95;8.45;;;10.90;42.20;;;;;;5052023;28;21554;-69
2023/03/05 12:34:37;;;;;;;13.98;8.75;;;11.20;41.00;;;;;;5048889;28;20276;-70
2023/03/05 12:37:04;;;;;;;13.38;9.02;;;11.70;41.40;;;;;;5051194;28;20194;-69
2023/03/05 12:39:51;;;;;;;15.68;10.70;;;11.80;42.00;;;;;;5050345;28;20273;-69
2023/03/05 12:42:46;;;;;;;17.38;9.38;;;11.60;41.90;;;;;;5051478;28;20226;-69
2023/03/05 12:45:46;;;;;;;18.67;10.48;;;11.50;42.10;;;;;;5014352;28;20195;-69
2023/03/05 12:48:43;;;;;;;17.73;10.02;;;11.20;41.90;;;;;;5050232;28;20289;-69
2023/03/05 12:51:34;;;;;;;17.65;10.02;;;11.10;41.70;;;;;;5049616;28;20195;-70